sensor_id;sensor_type;location;lat;lon;timestamp;temperature;humidity
3860;DHT22;1945;52.036;8.614;2023-01-29T00:00:19;0.00;1.00
3860;DHT22;1945;52.036;8.614;2023-01-29T00:02:47;0.00;1.00
3860;DHT22;1945;52.036;8.614;2023-01-29T00:05:14;0.20;99.90
3860;DHT22;1945;52.036;8.614;2023-01-29T00:07:41;0.60;1.00
3860;DHT22;1945;52.036;8.614;2023-01-29T00:10:09;0.00;1.00
3860;DHT22;1945;52.036;8.614;2023-01-29T00:12:36;0.00;99.90
3860;DHT22;1945;52.036;8.614;2023-01-29T00:15:03;-0.20;99.90
3860;DHT22;1945;52.036;8.614;2023-01-29T00:17:30;0.00;1.00
3860;DHT22;1945;52.036;8.614;2023-01-29T00:19:58;0.40;1.00
3860;DHT22;1945;52.036;8.614;2023-01-29T00:22:24;0.30;1.00
3860;DHT22;1945;52.036;8.614;2023-01-29T00:24:51;0.50;1.00
3860;DHT22;1945;52.036;8.614;2023-01-29T00:27:18;0.20;1.00
3860;DHT22;1945;52.036;8.614;2023-01-29T00:29:44;0.10;1.00
3860;DHT22;1945;52.036;8.614;2023-01-29T00:32:31;0.50;1.00
3860;DHT22;1945;52.036;8.614;2023-01-29T00:34:59;0.00;1.00
3860;DHT22;1945;52.036;8.614;2023-01-29T00:37:26;0.50;1.00
3860;DHT22;1945;52.036;8.614;2023-01-29T00:39:53;0.40;1.00
3860;DHT22;1945;52.036;8.614;2023-01-29T00:42:19;0.00;99.90
3860;DHT22;1945;52.036;8.614;2023-01-29T00:45:04;0.60;99.90
3860;DHT22;1945;52.036;8.614;2023-01-29T00:47:31;0.00;1.00
3860;DHT22;1945;52.036;8.614;2023-01-29T00:50:04;0.00;1.00
3860;DHT22;1945;52.036;8.614;2023-01-29T00:52:31;0.00;99.90
3860;DHT22;1945;52.036;8.614;2023-01-29T00:54:59;0.70;99.90
3860;DHT22;1945;52.036;8.614;2023-01-29T00:57:28;0.10;99.90
3860;DHT22;1945;52.036;8.614;2023-01-29T00:59:54;0.60;99.90
3860;DHT22;1945;52.036;8.614;2023-01-29T01:02:21;0.10;99.90
3860;DHT22;1945;52.036;8.614;2023-01-29T01:05:09;0.50;99.90
3860;DHT22;1945;52.036;8.614;2023-01-29T01:07:38;0.50;99.90
3860;DHT22;1945;52.036;8.614;2023-01-29T01:10:06;0.50;99.90
3860;DHT22;1945;52.036;8.614;2023-01-29T01:12:49;0.10;99.90
3860;DHT22;1945;52.036;8.614;2023-01-29T01:15:16;0.20;99.90
3860;DHT22;1945;52.036;8.614;2023-01-29T01:17:43;0.60;99.90
3860;DHT22;1945;52.036;8.614;2023-01-29T01:20:12;0.60;99.90
3860;DHT22;1945;52.036;8.614;2023-01-29T01:22:39;0.50;99.90
3860;DHT22;1945;52.036;8.614;2023-01-29T01:25:06;0.60;99.90
3860;DHT22;1945;52.036;8.614;2023-01-29T01:27:33;0.00;99.90
3860;DHT22;1945;52.036;8.614;2023-01-29T01:30:07;0.50;99.90
3860;DHT22;1945;52.036;8.614;2023-01-29T01:32:34;0.00;99.90
3860;DHT22;1945;52.036;8.614;2023-01-29T01:35:01;0.50;99.90
3860;DHT22;1945;52.036;8.614;2023-01-29T01:37:29;-0.10;99.90
3860;DHT22;1945;52.036;8.614;2023-01-29T01:39:56;0.00;99.90
3860;DHT22;1945;52.036;8.614;2023-01-29T01:42:26;0.20;99.90
3860;DHT22;1945;52.036;8.614;2023-01-29T01:44:57;-0.10;99.90
3860;DHT22;1945;52.036;8.614;2023-01-29T01:47:30;0.10;99.90
3860;DHT22;1945;52.036;8.614;2023-01-29T01:50:02;0.50;99.90
3860;DHT22;1945;52.036;8.614;2023-01-29T01:52:36;-0.20;99.90
3860;DHT22;1945;52.036;8.614;2023-01-29T01:55:08;0.20;99.90
3860;DHT22;1945;52.036;8.614;2023-01-29T01:57:36;0.40;99.90
3860;DHT22;1945;52.036;8.614;2023-01-29T02:00:07;-0.60;99.90
3860;DHT22;1945;52.036;8.614;2023-01-29T02:02:36;-0.20;99.90
3860;DHT22;1945;52.036;8.614;2023-01-29T02:05:21;0.00;99.90
3860;DHT22;1945;52.036;8.614;2023-01-29T02:08:07;0.40;99.90
3860;DHT22;1945;52.036;8.614;2023-01-29T02:10:52;0.30;99.90
3860;DHT22;1945;52.036;8.614;2023-01-29T02:13:19;0.30;99.90
3860;DHT22;1945;52.036;8.614;2023-01-29T02:15:46;0.30;1.00
3860;DHT22;1945;52.036;8.614;2023-01-29T02:18:15;0.20;1.00
3860;DHT22;1945;52.036;8.614;2023-01-29T02:20:47;0.20;1.00
3860;DHT22;1945;52.036;8.614;2023-01-29T02:26:46;-0.20;1.00
3860;DHT22;1945;52.036;8.614;2023-01-29T02:29:22;-0.20;99.90
3860;DHT22;1945;52.036;8.614;2023-01-29T02:31:58;0.40;1.00
3860;DHT22;1945;52.036;8.614;2023-01-29T02:34:35;0.30;1.00
3860;DHT22;1945;52.036;8.614;2023-01-29T02:37:25;0.40;1.00
3860;DHT22;1945;52.036;8.614;2023-01-29T02:40:00;-0.50;1.00
3860;DHT22;1945;52.036;8.614;2023-01-29T02:42:34;0.40;1.00
3860;DHT22;1945;52.036;8.614;2023-01-29T02:45:09;0.40;1.00
3860;DHT22;1945;52.036;8.614;2023-01-29T02:47:42;0.10;99.90
3860;DHT22;1945;52.036;8.614;2023-01-29T02:50:16;0.20;1.00
3860;DHT22;1945;52.036;8.614;2023-01-29T02:52:49;0.40;99.90
3860;DHT22;1945;52.036;8.614;2023-01-29T02:55:22;0.20;99.90
3860;DHT22;1945;52.036;8.614;2023-01-29T02:57:54;0.20;1.00
3860;DHT22;1945;52.036;8.614;2023-01-29T03:00:24;0.60;1.00
3860;DHT22;1945;52.036;8.614;2023-01-29T03:02:55;0.50;1.00
3860;DHT22;1945;52.036;8.614;2023-01-29T03:05:29;0.10;1.00
3860;DHT22;1945;52.036;8.614;2023-01-29T03:08:00;-0.50;1.00
3860;DHT22;1945;52.036;8.614;2023-01-29T03:10:33;-0.30;1.00
3860;DHT22;1945;52.036;8.614;2023-01-29T03:13:07;-0.10;1.00
3860;DHT22;1945;52.036;8.614;2023-01-29T03:15:40;-0.10;99.90
3860;DHT22;1945;52.036;8.614;2023-01-29T03:18:13;0.10;1.00
3860;DHT22;1945;52.036;8.614;2023-01-29T03:20:43;0.00;1.00
3860;DHT22;1945;52.036;8.614;2023-01-29T03:23:16;-0.10;1.00
3860;DHT22;1945;52.036;8.614;2023-01-29T03:26:03;0.00;1.00
3860;DHT22;1945;52.036;8.614;2023-01-29T03:28:48;-0.20;1.00
3860;DHT22;1945;52.036;8.614;2023-01-29T03:31:36;0.00;99.90
3860;DHT22;1945;52.036;8.614;2023-01-29T03:34:22;0.10;99.90
3860;DHT22;1945;52.036;8.614;2023-01-29T03:37:02;-0.60;1.00
3860;DHT22;1945;52.036;8.614;2023-01-29T03:39:32;0.20;99.90
3860;DHT22;1945;52.036;8.614;2023-01-29T03:42:01;0.00;99.90
3860;DHT22;1945;52.036;8.614;2023-01-29T03:44:34;0.00;99.90
3860;DHT22;1945;52.036;8.614;2023-01-29T03:47:13;0.50;99.90
3860;DHT22;1945;52.036;8.614;2023-01-29T03:49:54;-0.50;99.90
3860;DHT22;1945;52.036;8.614;2023-01-29T03:52:26;0.40;99.90
3860;DHT22;1945;52.036;8.614;2023-01-29T03:54:59;0.30;1.00
3860;DHT22;1945;52.036;8.614;2023-01-29T03:57:33;0.00;99.90
3860;DHT22;1945;52.036;8.614;2023-01-29T04:00:07;0.40;99.90
3860;DHT22;1945;52.036;8.614;2023-01-29T04:02:46;0.00;1.00
3860;DHT22;1945;52.036;8.614;2023-01-29T04:05:19;-0.40;1.00
3860;DHT22;1945;52.036;8.614;2023-01-29T04:07:47;0.20;99.90
3860;DHT22;1945;52.036;8.614;2023-01-29T04:10:20;0.00;99.90
3860;DHT22;1945;52.036;8.614;2023-01-29T04:12:50;0.00;99.90
3860;DHT22;1945;52.036;8.614;2023-01-29T04:15:20;0.60;1.00
3860;DHT22;1945;52.036;8.614;2023-01-29T04:17:51;0.60;1.00
3860;DHT22;1945;52.036;8.614;2023-01-29T04:20:19;0.20;1.00
3860;DHT22;1945;52.036;8.614;2023-01-29T04:22:48;0.00;1.00
3860;DHT22;1945;52.036;8.614;2023-01-29T04:25:16;0.60;1.00
3860;DHT22;1945;52.036;8.614;2023-01-29T04:27:57;0.20;1.00
3860;DHT22;1945;52.036;8.614;2023-01-29T04:30:35;0.20;1.00
3860;DHT22;1945;52.036;8.614;2023-01-29T04:33:16;0.30;1.00
3860;DHT22;1945;52.036;8.614;2023-01-29T04:36:00;0.10;1.00
3860;DHT22;1945;52.036;8.614;2023-01-29T04:38:38;0.10;1.00
3860;DHT22;1945;52.036;8.614;2023-01-29T04:41:10;0.30;1.00
3860;DHT22;1945;52.036;8.614;2023-01-29T04:43:43;0.40;1.00
3860;DHT22;1945;52.036;8.614;2023-01-29T04:46:14;0.30;1.00
3860;DHT22;1945;52.036;8.614;2023-01-29T04:49:02;0.20;1.00
3860;DHT22;1945;52.036;8.614;2023-01-29T04:51:36;0.10;1.00
3860;DHT22;1945;52.036;8.614;2023-01-29T04:54:14;0.70;1.00
3860;DHT22;1945;52.036;8.614;2023-01-29T04:56:48;0.70;1.00
3860;DHT22;1945;52.036;8.614;2023-01-29T04:59:21;0.40;1.00
3860;DHT22;1945;52.036;8.614;2023-01-29T05:01:51;0.50;1.00
3860;DHT22;1945;52.036;8.614;2023-01-29T05:04:20;0.00;1.00
3860;DHT22;1945;52.036;8.614;2023-01-29T05:06:47;0.30;1.00
3860;DHT22;1945;52.036;8.614;2023-01-29T05:09:15;0.30;1.00
3860;DHT22;1945;52.036;8.614;2023-01-29T05:11:44;-0.50;1.00
3860;DHT22;1945;52.036;8.614;2023-01-29T05:14:12;-0.10;1.00
3860;DHT22;1945;52.036;8.614;2023-01-29T05:16:43;0.30;1.00
3860;DHT22;1945;52.036;8.614;2023-01-29T05:19:13;0.20;1.00
3860;DHT22;1945;52.036;8.614;2023-01-29T05:21:44;0.20;1.00
3860;DHT22;1945;52.036;8.614;2023-01-29T05:24:13;-0.10;1.00
3860;DHT22;1945;52.036;8.614;2023-01-29T05:26:41;0.00;1.00
3860;DHT22;1945;52.036;8.614;2023-01-29T05:29:25;0.10;1.00
3860;DHT22;1945;52.036;8.614;2023-01-29T05:31:52;-0.10;1.00
3860;DHT22;1945;52.036;8.614;2023-01-29T05:34:19;-0.10;1.00
3860;DHT22;1945;52.036;8.614;2023-01-29T05:36:47;-0.50;1.00
3860;DHT22;1945;52.036;8.614;2023-01-29T05:39:13;-0.10;1.00
3860;DHT22;1945;52.036;8.614;2023-01-29T05:41:40;0.00;1.00
3860;DHT22;1945;52.036;8.614;2023-01-29T05:44:08;-0.10;1.00
3860;DHT22;1945;52.036;8.614;2023-01-29T05:46:35;0.10;1.00
3860;DHT22;1945;52.036;8.614;2023-01-29T05:49:02;0.00;1.00
3860;DHT22;1945;52.036;8.614;2023-01-29T05:51:29;0.20;1.00
3860;DHT22;1945;52.036;8.614;2023-01-29T05:53:57;-0.70;1.00
3860;DHT22;1945;52.036;8.614;2023-01-29T05:56:23;-0.10;1.00
3860;DHT22;1945;52.036;8.614;2023-01-29T05:58:50;-0.10;1.00
3860;DHT22;1945;52.036;8.614;2023-01-29T06:01:19;-0.70;1.00
3860;DHT22;1945;52.036;8.614;2023-01-29T06:03:46;-0.20;1.00
3860;DHT22;1945;52.036;8.614;2023-01-29T06:06:13;-0.10;1.00
3860;DHT22;1945;52.036;8.614;2023-01-29T06:08:41;-0.80;1.00
3860;DHT22;1945;52.036;8.614;2023-01-29T06:11:11;-0.20;1.00
3860;DHT22;1945;52.036;8.614;2023-01-29T06:13:38;0.40;1.00
3860;DHT22;1945;52.036;8.614;2023-01-29T06:16:06;-0.20;1.00
3860;DHT22;1945;52.036;8.614;2023-01-29T06:18:34;-0.10;1.00
3860;DHT22;1945;52.036;8.614;2023-01-29T06:21:02;-0.50;1.00
3860;DHT22;1945;52.036;8.614;2023-01-29T06:23:29;0.30;1.00
3860;DHT22;1945;52.036;8.614;2023-01-29T06:25:59;0.10;1.00
3860;DHT22;1945;52.036;8.614;2023-01-29T06:28:28;0.20;1.00
3860;DHT22;1945;52.036;8.614;2023-01-29T06:30:56;-0.10;1.00
3860;DHT22;1945;52.036;8.614;2023-01-29T06:33:23;0.00;1.00
3860;DHT22;1945;52.036;8.614;2023-01-29T06:35:54;-0.70;1.00
3860;DHT22;1945;52.036;8.614;2023-01-29T06:38:21;0.00;1.00
3860;DHT22;1945;52.036;8.614;2023-01-29T06:40:48;0.00;1.00
3860;DHT22;1945;52.036;8.614;2023-01-29T06:43:15;-0.20;1.00
3860;DHT22;1945;52.036;8.614;2023-01-29T06:45:47;-0.60;1.00
3860;DHT22;1945;52.036;8.614;2023-01-29T06:48:14;-0.10;1.00
3860;DHT22;1945;52.036;8.614;2023-01-29T06:50:40;-0.30;1.00
3860;DHT22;1945;52.036;8.614;2023-01-29T06:53:07;-0.20;1.00
3860;DHT22;1945;52.036;8.614;2023-01-29T06:55:34;0.00;1.00
3860;DHT22;1945;52.036;8.614;2023-01-29T06:58:04;-0.40;1.00
3860;DHT22;1945;52.036;8.614;2023-01-29T07:00:31;0.30;1.00
3860;DHT22;1945;52.036;8.614;2023-01-29T07:02:59;-0.30;1.00
3860;DHT22;1945;52.036;8.614;2023-01-29T07:05:26;0.00;1.00
3860;DHT22;1945;52.036;8.614;2023-01-29T07:07:52;-0.30;1.00
3860;DHT22;1945;52.036;8.614;2023-01-29T07:10:19;-0.30;1.00
3860;DHT22;1945;52.036;8.614;2023-01-29T07:12:46;-0.20;1.00
3860;DHT22;1945;52.036;8.614;2023-01-29T07:15:13;0.30;1.00
3860;DHT22;1945;52.036;8.614;2023-01-29T07:17:44;-0.10;1.00
3860;DHT22;1945;52.036;8.614;2023-01-29T07:20:12;0.00;1.00
3860;DHT22;1945;52.036;8.614;2023-01-29T07:22:39;0.10;1.00
3860;DHT22;1945;52.036;8.614;2023-01-29T07:25:07;-0.10;1.00
3860;DHT22;1945;52.036;8.614;2023-01-29T07:27:33;0.00;1.00
3860;DHT22;1945;52.036;8.614;2023-01-29T07:30:00;0.10;1.00
3860;DHT22;1945;52.036;8.614;2023-01-29T07:32:27;0.00;1.00
3860;DHT22;1945;52.036;8.614;2023-01-29T07:34:54;-0.20;1.00
3860;DHT22;1945;52.036;8.614;2023-01-29T07:37:22;-0.20;1.00
3860;DHT22;1945;52.036;8.614;2023-01-29T07:39:49;0.40;1.00
3860;DHT22;1945;52.036;8.614;2023-01-29T07:42:15;-0.30;1.00
3860;DHT22;1945;52.036;8.614;2023-01-29T07:44:42;-0.10;1.00
3860;DHT22;1945;52.036;8.614;2023-01-29T07:47:09;0.00;1.00
3860;DHT22;1945;52.036;8.614;2023-01-29T07:49:35;0.20;1.00
3860;DHT22;1945;52.036;8.614;2023-01-29T07:52:02;0.10;1.00
3860;DHT22;1945;52.036;8.614;2023-01-29T07:54:31;-0.60;1.00
3860;DHT22;1945;52.036;8.614;2023-01-29T07:56:57;0.70;1.00
3860;DHT22;1945;52.036;8.614;2023-01-29T07:59:24;-0.10;1.00
3860;DHT22;1945;52.036;8.614;2023-01-29T08:01:51;-0.20;1.00
3860;DHT22;1945;52.036;8.614;2023-01-29T08:04:17;0.10;1.00
3860;DHT22;1945;52.036;8.614;2023-01-29T08:06:44;0.20;1.00
3860;DHT22;1945;52.036;8.614;2023-01-29T08:09:11;0.30;1.00
3860;DHT22;1945;52.036;8.614;2023-01-29T08:11:39;-0.20;1.00
3860;DHT22;1945;52.036;8.614;2023-01-29T08:14:05;0.60;1.00
3860;DHT22;1945;52.036;8.614;2023-01-29T08:16:33;0.30;1.00
3860;DHT22;1945;52.036;8.614;2023-01-29T08:19:00;0.70;1.00
3860;DHT22;1945;52.036;8.614;2023-01-29T08:21:27;0.60;1.00
3860;DHT22;1945;52.036;8.614;2023-01-29T08:23:54;0.40;1.00
3860;DHT22;1945;52.036;8.614;2023-01-29T08:26:21;0.50;1.00
3860;DHT22;1945;52.036;8.614;2023-01-29T08:28:49;0.70;1.00
3860;DHT22;1945;52.036;8.614;2023-01-29T08:31:18;0.80;1.00
3860;DHT22;1945;52.036;8.614;2023-01-29T08:33:46;0.20;1.00
3860;DHT22;1945;52.036;8.614;2023-01-29T08:36:13;0.60;1.00
3860;DHT22;1945;52.036;8.614;2023-01-29T08:38:40;0.60;1.00
3860;DHT22;1945;52.036;8.614;2023-01-29T08:41:07;0.90;1.00
3860;DHT22;1945;52.036;8.614;2023-01-29T08:43:34;0.00;1.00
3860;DHT22;1945;52.036;8.614;2023-01-29T08:46:04;1.00;1.00
3860;DHT22;1945;52.036;8.614;2023-01-29T08:48:31;0.50;1.00
3860;DHT22;1945;52.036;8.614;2023-01-29T08:50:58;1.00;1.00
3860;DHT22;1945;52.036;8.614;2023-01-29T08:53:25;0.90;1.00
3860;DHT22;1945;52.036;8.614;2023-01-29T08:55:51;1.00;1.00
3860;DHT22;1945;52.036;8.614;2023-01-29T08:58:18;0.90;1.00
3860;DHT22;1945;52.036;8.614;2023-01-29T09:00:45;1.00;1.00
3860;DHT22;1945;52.036;8.614;2023-01-29T09:03:13;1.10;1.00
3860;DHT22;1945;52.036;8.614;2023-01-29T09:05:40;1.00;1.00
3860;DHT22;1945;52.036;8.614;2023-01-29T09:08:08;1.20;1.00
3860;DHT22;1945;52.036;8.614;2023-01-29T09:10:35;1.00;1.00
3860;DHT22;1945;52.036;8.614;2023-01-29T09:13:02;0.80;1.00
3860;DHT22;1945;52.036;8.614;2023-01-29T09:15:28;1.10;1.00
3860;DHT22;1945;52.036;8.614;2023-01-29T09:17:55;1.20;1.00
3860;DHT22;1945;52.036;8.614;2023-01-29T09:20:23;0.70;99.90
3860;DHT22;1945;52.036;8.614;2023-01-29T09:22:50;1.10;1.00
3860;DHT22;1945;52.036;8.614;2023-01-29T09:25:18;1.10;1.00
3860;DHT22;1945;52.036;8.614;2023-01-29T09:27:44;0.90;1.00
3860;DHT22;1945;52.036;8.614;2023-01-29T09:30:12;1.10;1.00
3860;DHT22;1945;52.036;8.614;2023-01-29T09:32:38;0.60;1.00
3860;DHT22;1945;52.036;8.614;2023-01-29T09:35:06;0.80;1.00
3860;DHT22;1945;52.036;8.614;2023-01-29T09:37:35;0.70;1.00
3860;DHT22;1945;52.036;8.614;2023-01-29T09:40:01;1.20;1.00
3860;DHT22;1945;52.036;8.614;2023-01-29T09:42:30;1.30;1.00
3860;DHT22;1945;52.036;8.614;2023-01-29T09:45:04;1.30;1.00
3860;DHT22;1945;52.036;8.614;2023-01-29T09:47:34;1.30;1.00
3860;DHT22;1945;52.036;8.614;2023-01-29T09:50:04;1.10;1.00
3860;DHT22;1945;52.036;8.614;2023-01-29T09:52:35;1.00;1.00
3860;DHT22;1945;52.036;8.614;2023-01-29T09:55:09;1.50;1.00
3860;DHT22;1945;52.036;8.614;2023-01-29T09:57:43;1.00;99.90
3860;DHT22;1945;52.036;8.614;2023-01-29T10:00:14;0.90;99.90
3860;DHT22;1945;52.036;8.614;2023-01-29T10:03:11;1.00;1.00
3860;DHT22;1945;52.036;8.614;2023-01-29T10:05:49;1.10;1.00
3860;DHT22;1945;52.036;8.614;2023-01-29T10:08:46;1.20;1.00
3860;DHT22;1945;52.036;8.614;2023-01-29T10:11:26;1.20;1.00
3860;DHT22;1945;52.036;8.614;2023-01-29T10:14:03;0.80;1.00
3860;DHT22;1945;52.036;8.614;2023-01-29T10:16:44;1.40;1.00
3860;DHT22;1945;52.036;8.614;2023-01-29T10:19:45;1.50;99.90
3860;DHT22;1945;52.036;8.614;2023-01-29T10:22:30;1.20;99.90
3860;DHT22;1945;52.036;8.614;2023-01-29T10:25:03;0.80;99.90
3860;DHT22;1945;52.036;8.614;2023-01-29T10:27:32;1.90;99.90
3860;DHT22;1945;52.036;8.614;2023-01-29T10:30:02;1.30;99.90
3860;DHT22;1945;52.036;8.614;2023-01-29T10:32:35;1.80;99.90
3860;DHT22;1945;52.036;8.614;2023-01-29T10:35:11;1.90;99.90
3860;DHT22;1945;52.036;8.614;2023-01-29T10:37:40;1.60;99.90
3860;DHT22;1945;52.036;8.614;2023-01-29T10:40:18;1.70;99.90
3860;DHT22;1945;52.036;8.614;2023-01-29T10:42:47;1.90;99.90
3860;DHT22;1945;52.036;8.614;2023-01-29T10:45:22;2.00;99.90
3860;DHT22;1945;52.036;8.614;2023-01-29T10:48:12;1.50;99.90
3860;DHT22;1945;52.036;8.614;2023-01-29T10:50:48;1.00;99.90
3860;DHT22;1945;52.036;8.614;2023-01-29T10:53:29;0.90;99.90
3860;DHT22;1945;52.036;8.614;2023-01-29T10:56:08;0.90;99.90
3860;DHT22;1945;52.036;8.614;2023-01-29T10:58:40;1.70;99.90
3860;DHT22;1945;52.036;8.614;2023-01-29T11:01:09;1.80;99.90
3860;DHT22;1945;52.036;8.614;2023-01-29T11:03:36;1.90;99.90
3860;DHT22;1945;52.036;8.614;2023-01-29T11:06:10;1.80;99.90
3860;DHT22;1945;52.036;8.614;2023-01-29T11:08:42;1.80;99.90
3860;DHT22;1945;52.036;8.614;2023-01-29T11:11:14;1.90;99.90
3860;DHT22;1945;52.036;8.614;2023-01-29T11:13:44;1.90;99.90
3860;DHT22;1945;52.036;8.614;2023-01-29T11:16:14;1.50;99.90
3860;DHT22;1945;52.036;8.614;2023-01-29T11:18:56;1.70;99.90
3860;DHT22;1945;52.036;8.614;2023-01-29T11:21:24;1.90;99.90
3860;DHT22;1945;52.036;8.614;2023-01-29T11:24:05;1.20;99.90
3860;DHT22;1945;52.036;8.614;2023-01-29T11:26:38;2.10;99.90
3860;DHT22;1945;52.036;8.614;2023-01-29T11:29:31;2.00;99.90
3860;DHT22;1945;52.036;8.614;2023-01-29T11:32:00;1.80;99.90
3860;DHT22;1945;52.036;8.614;2023-01-29T11:34:29;2.10;99.90
3860;DHT22;1945;52.036;8.614;2023-01-29T11:36:57;1.50;99.90
3860;DHT22;1945;52.036;8.614;2023-01-29T11:39:25;1.50;99.90
3860;DHT22;1945;52.036;8.614;2023-01-29T11:41:57;1.70;99.90
3860;DHT22;1945;52.036;8.614;2023-01-29T11:44:30;1.80;99.90
3860;DHT22;1945;52.036;8.614;2023-01-29T11:47:10;2.10;99.90
3860;DHT22;1945;52.036;8.614;2023-01-29T11:49:39;1.70;99.90
3860;DHT22;1945;52.036;8.614;2023-01-29T11:52:10;2.20;1.00
3860;DHT22;1945;52.036;8.614;2023-01-29T11:54:43;2.20;99.90
3860;DHT22;1945;52.036;8.614;2023-01-29T11:57:30;1.70;99.90
3860;DHT22;1945;52.036;8.614;2023-01-29T12:00:00;1.70;1.00
3860;DHT22;1945;52.036;8.614;2023-01-29T12:02:32;2.20;99.90
3860;DHT22;1945;52.036;8.614;2023-01-29T12:05:04;2.10;1.00
3860;DHT22;1945;52.036;8.614;2023-01-29T12:07:32;1.90;99.90
3860;DHT22;1945;52.036;8.614;2023-01-29T12:09:59;2.40;99.90
3860;DHT22;1945;52.036;8.614;2023-01-29T12:12:29;1.90;99.90
3860;DHT22;1945;52.036;8.614;2023-01-29T12:15:09;2.20;99.90
3860;DHT22;1945;52.036;8.614;2023-01-29T12:17:42;2.00;99.90
3860;DHT22;1945;52.036;8.614;2023-01-29T12:20:13;2.10;99.90
3860;DHT22;1945;52.036;8.614;2023-01-29T12:22:44;2.50;99.90
3860;DHT22;1945;52.036;8.614;2023-01-29T12:25:19;1.60;99.90
3860;DHT22;1945;52.036;8.614;2023-01-29T12:27:53;2.40;99.90
3860;DHT22;1945;52.036;8.614;2023-01-29T12:30:26;2.00;99.90
3860;DHT22;1945;52.036;8.614;2023-01-29T12:32:58;2.50;99.90
3860;DHT22;1945;52.036;8.614;2023-01-29T12:35:29;2.60;99.90
3860;DHT22;1945;52.036;8.614;2023-01-29T12:38:01;2.60;99.90
3860;DHT22;1945;52.036;8.614;2023-01-29T12:40:31;2.10;99.90
3860;DHT22;1945;52.036;8.614;2023-01-29T12:43:05;2.20;99.90
3860;DHT22;1945;52.036;8.614;2023-01-29T12:45:38;2.70;99.90
3860;DHT22;1945;52.036;8.614;2023-01-29T12:48:07;2.60;99.90
3860;DHT22;1945;52.036;8.614;2023-01-29T12:50:36;2.20;99.90
3860;DHT22;1945;52.036;8.614;2023-01-29T12:53:07;2.20;99.90
3860;DHT22;1945;52.036;8.614;2023-01-29T12:55:41;2.70;99.90
3860;DHT22;1945;52.036;8.614;2023-01-29T12:58:15;2.80;99.90
3860;DHT22;1945;52.036;8.614;2023-01-29T13:00:45;2.70;99.90
3860;DHT22;1945;52.036;8.614;2023-01-29T13:03:18;2.70;99.90
3860;DHT22;1945;52.036;8.614;2023-01-29T13:05:48;2.60;99.90
3860;DHT22;1945;52.036;8.614;2023-01-29T13:08:18;2.70;99.90
3860;DHT22;1945;52.036;8.614;2023-01-29T13:10:49;2.70;99.90
3860;DHT22;1945;52.036;8.614;2023-01-29T13:13:25;1.80;99.90
3860;DHT22;1945;52.036;8.614;2023-01-29T13:15:54;2.20;99.90
3860;DHT22;1945;52.036;8.614;2023-01-29T13:18:38;2.60;99.90
3860;DHT22;1945;52.036;8.614;2023-01-29T13:21:12;2.80;99.90
3860;DHT22;1945;52.036;8.614;2023-01-29T13:23:42;2.70;99.90
3860;DHT22;1945;52.036;8.614;2023-01-29T13:26:10;2.70;99.90
3860;DHT22;1945;52.036;8.614;2023-01-29T13:28:39;2.20;99.90
3860;DHT22;1945;52.036;8.614;2023-01-29T13:31:17;2.80;99.90
3860;DHT22;1945;52.036;8.614;2023-01-29T13:33:52;2.30;99.90
3860;DHT22;1945;52.036;8.614;2023-01-29T13:36:24;2.60;99.90
3860;DHT22;1945;52.036;8.614;2023-01-29T13:38:57;2.20;99.90
3860;DHT22;1945;52.036;8.614;2023-01-29T13:41:32;2.70;99.90
3860;DHT22;1945;52.036;8.614;2023-01-29T13:44:01;2.70;99.90
3860;DHT22;1945;52.036;8.614;2023-01-29T13:46:28;2.20;99.90
3860;DHT22;1945;52.036;8.614;2023-01-29T13:48:55;2.80;99.90
3860;DHT22;1945;52.036;8.614;2023-01-29T13:51:32;2.70;99.90
3860;DHT22;1945;52.036;8.614;2023-01-29T13:54:03;2.70;99.90
3860;DHT22;1945;52.036;8.614;2023-01-29T13:56:45;2.20;99.90
3860;DHT22;1945;52.036;8.614;2023-01-29T13:59:47;2.70;99.90
3860;DHT22;1945;52.036;8.614;2023-01-29T14:02:20;2.70;99.90
3860;DHT22;1945;52.036;8.614;2023-01-29T14:04:47;1.90;99.90
3860;DHT22;1945;52.036;8.614;2023-01-29T14:07:47;2.30;99.90
3860;DHT22;1945;52.036;8.614;2023-01-29T14:10:19;2.30;99.90
3860;DHT22;1945;52.036;8.614;2023-01-29T14:12:51;2.50;99.90
3860;DHT22;1945;52.036;8.614;2023-01-29T14:15:30;2.30;99.90
3860;DHT22;1945;52.036;8.614;2023-01-29T14:18:16;2.20;99.90
3860;DHT22;1945;52.036;8.614;2023-01-29T14:20:55;2.50;99.90
3860;DHT22;1945;52.036;8.614;2023-01-29T14:23:29;2.00;99.90
3860;DHT22;1945;52.036;8.614;2023-01-29T14:25:59;2.20;99.90
3860;DHT22;1945;52.036;8.614;2023-01-29T14:28:28;2.40;99.90
3860;DHT22;1945;52.036;8.614;2023-01-29T14:30:58;2.60;99.90
3860;DHT22;1945;52.036;8.614;2023-01-29T14:33:27;2.70;99.90
3860;DHT22;1945;52.036;8.614;2023-01-29T14:35:57;2.30;99.90
3860;DHT22;1945;52.036;8.614;2023-01-29T14:38:26;1.90;99.90
3860;DHT22;1945;52.036;8.614;2023-01-29T14:41:03;2.70;99.90
3860;DHT22;1945;52.036;8.614;2023-01-29T14:43:31;2.10;99.90
3860;DHT22;1945;52.036;8.614;2023-01-29T14:46:40;2.50;99.90
3860;DHT22;1945;52.036;8.614;2023-01-29T14:49:08;2.10;99.90
3860;DHT22;1945;52.036;8.614;2023-01-29T14:51:37;2.70;99.90
3860;DHT22;1945;52.036;8.614;2023-01-29T14:54:17;2.10;99.90
3860;DHT22;1945;52.036;8.614;2023-01-29T14:56:54;2.00;99.90
3860;DHT22;1945;52.036;8.614;2023-01-29T14:59:28;2.70;99.90
3860;DHT22;1945;52.036;8.614;2023-01-29T15:01:58;2.40;99.90
3860;DHT22;1945;52.036;8.614;2023-01-29T15:04:28;1.70;99.90
3860;DHT22;1945;52.036;8.614;2023-01-29T15:07:02;2.30;99.90
3860;DHT22;1945;52.036;8.614;2023-01-29T15:09:37;1.80;99.90
3860;DHT22;1945;52.036;8.614;2023-01-29T15:12:14;2.60;99.90
3860;DHT22;1945;52.036;8.614;2023-01-29T15:14:46;1.80;99.90
3860;DHT22;1945;52.036;8.614;2023-01-29T15:17:22;1.60;99.90
3860;DHT22;1945;52.036;8.614;2023-01-29T15:19:54;2.30;99.90
3860;DHT22;1945;52.036;8.614;2023-01-29T15:22:23;2.10;99.90
3860;DHT22;1945;52.036;8.614;2023-01-29T15:25:05;2.40;99.90
3860;DHT22;1945;52.036;8.614;2023-01-29T15:27:32;2.30;99.90
3860;DHT22;1945;52.036;8.614;2023-01-29T15:30:02;2.10;99.90
3860;DHT22;1945;52.036;8.614;2023-01-29T15:32:32;2.20;99.90
3860;DHT22;1945;52.036;8.614;2023-01-29T15:35:05;2.40;99.90
3860;DHT22;1945;52.036;8.614;2023-01-29T15:37:34;2.50;99.90
3860;DHT22;1945;52.036;8.614;2023-01-29T15:40:11;1.60;99.90
3860;DHT22;1945;52.036;8.614;2023-01-29T15:42:44;2.10;99.90
3860;DHT22;1945;52.036;8.614;2023-01-29T15:45:21;2.40;1.00
3860;DHT22;1945;52.036;8.614;2023-01-29T15:47:51;2.10;99.90
3860;DHT22;1945;52.036;8.614;2023-01-29T15:50:20;2.10;99.90
3860;DHT22;1945;52.036;8.614;2023-01-29T15:52:53;2.30;99.90
3860;DHT22;1945;52.036;8.614;2023-01-29T15:55:23;2.20;99.90
3860;DHT22;1945;52.036;8.614;2023-01-29T15:57:52;2.10;1.00
3860;DHT22;1945;52.036;8.614;2023-01-29T16:00:22;2.10;1.00
3860;DHT22;1945;52.036;8.614;2023-01-29T16:02:49;2.10;99.90
3860;DHT22;1945;52.036;8.614;2023-01-29T16:05:22;2.10;1.00
3860;DHT22;1945;52.036;8.614;2023-01-29T16:07:51;2.00;1.00
3860;DHT22;1945;52.036;8.614;2023-01-29T16:10:21;2.10;1.00
3860;DHT22;1945;52.036;8.614;2023-01-29T16:12:50;1.90;1.00
3860;DHT22;1945;52.036;8.614;2023-01-29T16:15:28;1.40;1.00
3860;DHT22;1945;52.036;8.614;2023-01-29T16:18:03;2.00;1.00
3860;DHT22;1945;52.036;8.614;2023-01-29T16:20:40;1.90;1.00
3860;DHT22;1945;52.036;8.614;2023-01-29T16:23:16;1.50;1.00
3860;DHT22;1945;52.036;8.614;2023-01-29T16:25:45;1.90;1.00
3860;DHT22;1945;52.036;8.614;2023-01-29T16:28:13;2.10;1.00
3860;DHT22;1945;52.036;8.614;2023-01-29T16:30:40;2.10;1.00
3860;DHT22;1945;52.036;8.614;2023-01-29T16:33:12;2.10;1.00
3860;DHT22;1945;52.036;8.614;2023-01-29T16:35:54;1.70;1.00
3860;DHT22;1945;52.036;8.614;2023-01-29T16:38:29;2.00;1.00
3860;DHT22;1945;52.036;8.614;2023-01-29T16:41:06;1.50;1.00
3860;DHT22;1945;52.036;8.614;2023-01-29T16:43:56;2.00;1.00
3860;DHT22;1945;52.036;8.614;2023-01-29T16:46:25;2.30;1.00
3860;DHT22;1945;52.036;8.614;2023-01-29T16:48:53;1.90;1.00
3860;DHT22;1945;52.036;8.614;2023-01-29T16:51:27;1.70;1.00
3860;DHT22;1945;52.036;8.614;2023-01-29T16:54:10;1.50;1.00
3860;DHT22;1945;52.036;8.614;2023-01-29T16:56:46;2.30;1.00